West Bloomfield, Michigan
Current Conditions -  °F | °C
As of 10:55 AM on Friday 24 Oct 2014 (Local Time) from KVLL Reporting Station
Overcast Overcast  
Wind Chill: 53°   Ceiling: 5000
Heat Index: 53°   Visibility: 10mi
Dew Point: 40°   Wind: 3mph
Humidity: 63%   Direction: 240°WSW
Pressure: 30.08"   Gusts: NA
Location:  42.54°N, 83.22°W
Report Text: KVLL 241455Z AUTO 24003KT 10SM OVC050 12/05 A3008 RMK AO2 T01160047
Loading
Personal Weather Stations






























Interactive Weather Map
Tropical Storm Tracking
New forecast layout! Learn more

10-Day Weather Forecast

Advertisements
Track Severe Weather on mobile